sensor_id;sensor_type;location;lat;lon;timestamp;temperature;humidity
39675;DHT22;27790;50.840;4.386;2023-06-10T00:00:41;23.50;75.50
39675;DHT22;27790;50.840;4.386;2023-06-10T00:03:07;23.50;76.10
39675;DHT22;27790;50.840;4.386;2023-06-10T00:05:34;23.40;76.20
39675;DHT22;27790;50.840;4.386;2023-06-10T00:08:00;23.20;76.50
39675;DHT22;27790;50.840;4.386;2023-06-10T00:10:32;23.20;76.60
39675;DHT22;27790;50.840;4.386;2023-06-10T00:12:58;23.10;76.60
39675;DHT22;27790;50.840;4.386;2023-06-10T00:15:24;23.20;76.60
39675;DHT22;27790;50.840;4.386;2023-06-10T00:17:50;23.10;76.40
39675;DHT22;27790;50.840;4.386;2023-06-10T00:20:18;23.20;76.50
39675;DHT22;27790;50.840;4.386;2023-06-10T00:22:44;23.20;76.30
39675;DHT22;27790;50.840;4.386;2023-06-10T00:25:11;23.10;76.50
39675;DHT22;27790;50.840;4.386;2023-06-10T00:27:36;23.10;76.60
39675;DHT22;27790;50.840;4.386;2023-06-10T00:30:04;23.00;76.80
39675;DHT22;27790;50.840;4.386;2023-06-10T00:32:35;23.00;76.70
39675;DHT22;27790;50.840;4.386;2023-06-10T00:35:01;23.00;77.00
39675;DHT22;27790;50.840;4.386;2023-06-10T00:37:26;22.90;76.80
39675;DHT22;27790;50.840;4.386;2023-06-10T00:39:54;22.90;77.30
39675;DHT22;27790;50.840;4.386;2023-06-10T00:42:19;22.90;77.40
39675;DHT22;27790;50.840;4.386;2023-06-10T00:44:45;22.90;77.10
39675;DHT22;27790;50.840;4.386;2023-06-10T00:47:10;22.90;77.20
39675;DHT22;27790;50.840;4.386;2023-06-10T00:49:36;22.90;77.10
39675;DHT22;27790;50.840;4.386;2023-06-10T00:52:03;22.90;77.20
39675;DHT22;27790;50.840;4.386;2023-06-10T00:54:30;22.90;77.10
39675;DHT22;27790;50.840;4.386;2023-06-10T00:56:56;22.80;77.30
39675;DHT22;27790;50.840;4.386;2023-06-10T00:59:23;22.80;77.30
39675;DHT22;27790;50.840;4.386;2023-06-10T01:01:50;22.80;77.40
39675;DHT22;27790;50.840;4.386;2023-06-10T01:04:17;22.70;77.30
39675;DHT22;27790;50.840;4.386;2023-06-10T01:09:38;22.70;77.30
39675;DHT22;27790;50.840;4.386;2023-06-10T01:14:36;22.70;77.90
39675;DHT22;27790;50.840;4.386;2023-06-10T01:17:02;22.70;77.20
39675;DHT22;27790;50.840;4.386;2023-06-10T01:19:28;22.60;77.30
39675;DHT22;27790;50.840;4.386;2023-06-10T01:21:56;22.60;77.40
39675;DHT22;27790;50.840;4.386;2023-06-10T01:24:26;22.60;77.30
39675;DHT22;27790;50.840;4.386;2023-06-10T01:26:53;22.60;77.30
39675;DHT22;27790;50.840;4.386;2023-06-10T01:32:10;22.60;77.60
39675;DHT22;27790;50.840;4.386;2023-06-10T01:34:37;22.50;77.60
39675;DHT22;27790;50.840;4.386;2023-06-10T01:37:05;22.50;77.80
39675;DHT22;27790;50.840;4.386;2023-06-10T01:39:32;22.50;77.70
39675;DHT22;27790;50.840;4.386;2023-06-10T01:41:58;22.40;77.80
39675;DHT22;27790;50.840;4.386;2023-06-10T01:44:24;22.40;77.80
39675;DHT22;27790;50.840;4.386;2023-06-10T01:46:50;22.40;77.90
39675;DHT22;27790;50.840;4.386;2023-06-10T01:49:15;22.40;77.90
39675;DHT22;27790;50.840;4.386;2023-06-10T01:51:41;22.30;77.90
39675;DHT22;27790;50.840;4.386;2023-06-10T01:54:07;22.30;77.80
39675;DHT22;27790;50.840;4.386;2023-06-10T01:56:33;22.30;77.90
39675;DHT22;27790;50.840;4.386;2023-06-10T01:58:59;22.30;77.90
39675;DHT22;27790;50.840;4.386;2023-06-10T02:01:25;22.20;78.10
39675;DHT22;27790;50.840;4.386;2023-06-10T02:03:51;22.20;78.30
39675;DHT22;27790;50.840;4.386;2023-06-10T02:06:17;22.10;78.40
39675;DHT22;27790;50.840;4.386;2023-06-10T02:08:42;22.10;78.50
39675;DHT22;27790;50.840;4.386;2023-06-10T02:11:08;22.10;78.40
39675;DHT22;27790;50.840;4.386;2023-06-10T02:13:34;22.10;78.90
39675;DHT22;27790;50.840;4.386;2023-06-10T02:16:00;22.20;78.40
39675;DHT22;27790;50.840;4.386;2023-06-10T02:18:26;22.20;78.70
39675;DHT22;27790;50.840;4.386;2023-06-10T02:20:53;22.10;78.60
39675;DHT22;27790;50.840;4.386;2023-06-10T02:23:19;22.10;78.70
39675;DHT22;27790;50.840;4.386;2023-06-10T02:25:45;22.10;78.70
39675;DHT22;27790;50.840;4.386;2023-06-10T02:28:13;22.00;78.80
39675;DHT22;27790;50.840;4.386;2023-06-10T02:30:40;22.00;78.90
39675;DHT22;27790;50.840;4.386;2023-06-10T02:33:06;22.00;79.00
39675;DHT22;27790;50.840;4.386;2023-06-10T02:35:36;22.00;79.10
39675;DHT22;27790;50.840;4.386;2023-06-10T02:38:02;22.00;79.50
39675;DHT22;27790;50.840;4.386;2023-06-10T02:40:27;21.90;79.40
39675;DHT22;27790;50.840;4.386;2023-06-10T02:42:53;21.90;79.60
39675;DHT22;27790;50.840;4.386;2023-06-10T02:45:19;21.90;79.50
39675;DHT22;27790;50.840;4.386;2023-06-10T02:47:44;21.90;79.40
39675;DHT22;27790;50.840;4.386;2023-06-10T02:50:10;21.90;79.30
39675;DHT22;27790;50.840;4.386;2023-06-10T02:52:37;21.90;79.40
39675;DHT22;27790;50.840;4.386;2023-06-10T02:55:02;21.90;79.70
39675;DHT22;27790;50.840;4.386;2023-06-10T02:57:28;21.90;80.00
39675;DHT22;27790;50.840;4.386;2023-06-10T02:59:54;21.80;79.60
39675;DHT22;27790;50.840;4.386;2023-06-10T03:02:20;21.80;79.70
39675;DHT22;27790;50.840;4.386;2023-06-10T03:04:45;21.80;79.60
39675;DHT22;27790;50.840;4.386;2023-06-10T03:07:11;21.80;79.70
39675;DHT22;27790;50.840;4.386;2023-06-10T03:09:37;21.80;79.80
39675;DHT22;27790;50.840;4.386;2023-06-10T03:12:03;21.80;79.80
39675;DHT22;27790;50.840;4.386;2023-06-10T03:14:29;21.80;79.90
39675;DHT22;27790;50.840;4.386;2023-06-10T03:16:54;21.70;80.10
39675;DHT22;27790;50.840;4.386;2023-06-10T03:19:21;21.60;80.40
39675;DHT22;27790;50.840;4.386;2023-06-10T03:21:57;21.60;80.50
39675;DHT22;27790;50.840;4.386;2023-06-10T03:24:31;21.60;80.70
39675;DHT22;27790;50.840;4.386;2023-06-10T03:26:57;21.50;81.00
39675;DHT22;27790;50.840;4.386;2023-06-10T03:29:23;21.50;81.00
39675;DHT22;27790;50.840;4.386;2023-06-10T03:31:48;21.50;81.10
39675;DHT22;27790;50.840;4.386;2023-06-10T03:34:14;21.50;81.10
39675;DHT22;27790;50.840;4.386;2023-06-10T03:36:39;21.50;81.30
39675;DHT22;27790;50.840;4.386;2023-06-10T03:39:06;21.50;81.30
39675;DHT22;27790;50.840;4.386;2023-06-10T03:41:32;21.50;81.10
39675;DHT22;27790;50.840;4.386;2023-06-10T03:43:58;21.50;81.10
39675;DHT22;27790;50.840;4.386;2023-06-10T03:46:23;21.50;81.20
39675;DHT22;27790;50.840;4.386;2023-06-10T03:48:49;21.50;81.40
39675;DHT22;27790;50.840;4.386;2023-06-10T03:51:14;21.50;81.40
39675;DHT22;27790;50.840;4.386;2023-06-10T03:53:40;21.50;81.30
39675;DHT22;27790;50.840;4.386;2023-06-10T03:56:06;21.50;81.40
39675;DHT22;27790;50.840;4.386;2023-06-10T03:58:31;21.50;81.30
39675;DHT22;27790;50.840;4.386;2023-06-10T04:00:57;21.50;81.30
39675;DHT22;27790;50.840;4.386;2023-06-10T04:03:23;21.60;81.40
39675;DHT22;27790;50.840;4.386;2023-06-10T04:05:49;21.60;81.30
39675;DHT22;27790;50.840;4.386;2023-06-10T04:08:15;21.50;81.40
39675;DHT22;27790;50.840;4.386;2023-06-10T04:10:41;21.60;81.60
39675;DHT22;27790;50.840;4.386;2023-06-10T04:13:06;21.50;81.60
39675;DHT22;27790;50.840;4.386;2023-06-10T04:15:32;21.60;81.50
39675;DHT22;27790;50.840;4.386;2023-06-10T04:17:58;21.60;81.50
39675;DHT22;27790;50.840;4.386;2023-06-10T04:20:25;21.60;81.60
39675;DHT22;27790;50.840;4.386;2023-06-10T04:22:50;21.90;81.00
39675;DHT22;27790;50.840;4.386;2023-06-10T04:25:16;22.30;79.70
39675;DHT22;27790;50.840;4.386;2023-06-10T04:27:42;22.70;78.90
39675;DHT22;27790;50.840;4.386;2023-06-10T04:30:08;23.00;78.20
39675;DHT22;27790;50.840;4.386;2023-06-10T04:32:34;23.30;77.80
39675;DHT22;27790;50.840;4.386;2023-06-10T04:35:00;23.40;77.10
39675;DHT22;27790;50.840;4.386;2023-06-10T04:37:26;23.60;76.60
39675;DHT22;27790;50.840;4.386;2023-06-10T04:39:51;24.00;76.00
39675;DHT22;27790;50.840;4.386;2023-06-10T04:42:17;24.20;75.10
39675;DHT22;27790;50.840;4.386;2023-06-10T04:44:42;24.40;74.60
39675;DHT22;27790;50.840;4.386;2023-06-10T04:47:08;24.80;74.10
39675;DHT22;27790;50.840;4.386;2023-06-10T04:49:34;24.90;73.60
39675;DHT22;27790;50.840;4.386;2023-06-10T04:52:01;25.00;73.60
39675;DHT22;27790;50.840;4.386;2023-06-10T04:54:27;25.10;73.00
39675;DHT22;27790;50.840;4.386;2023-06-10T04:56:52;25.30;72.90
39675;DHT22;27790;50.840;4.386;2023-06-10T04:59:18;25.50;72.40
39675;DHT22;27790;50.840;4.386;2023-06-10T05:01:43;25.70;72.30
39675;DHT22;27790;50.840;4.386;2023-06-10T05:04:09;25.90;72.00
39675;DHT22;27790;50.840;4.386;2023-06-10T05:06:34;26.20;71.30
39675;DHT22;27790;50.840;4.386;2023-06-10T05:09:01;26.40;70.90
39675;DHT22;27790;50.840;4.386;2023-06-10T05:11:27;26.60;70.50
39675;DHT22;27790;50.840;4.386;2023-06-10T05:13:52;26.70;70.10
39675;DHT22;27790;50.840;4.386;2023-06-10T05:16:18;26.90;69.90
39675;DHT22;27790;50.840;4.386;2023-06-10T05:18:43;26.90;69.50
39675;DHT22;27790;50.840;4.386;2023-06-10T05:21:10;27.20;69.70
39675;DHT22;27790;50.840;4.386;2023-06-10T05:23:35;27.60;68.40
39675;DHT22;27790;50.840;4.386;2023-06-10T05:26:01;28.00;68.10
39675;DHT22;27790;50.840;4.386;2023-06-10T05:28:26;28.20;67.40
39675;DHT22;27790;50.840;4.386;2023-06-10T05:30:52;28.40;67.10
39675;DHT22;27790;50.840;4.386;2023-06-10T05:33:18;28.20;67.10
39675;DHT22;27790;50.840;4.386;2023-06-10T05:35:43;28.50;67.10
39675;DHT22;27790;50.840;4.386;2023-06-10T05:38:09;28.80;66.40
39675;DHT22;27790;50.840;4.386;2023-06-10T05:40:34;29.00;66.50
39675;DHT22;27790;50.840;4.386;2023-06-10T05:43:00;29.20;66.50
39675;DHT22;27790;50.840;4.386;2023-06-10T05:45:27;29.10;66.20
39675;DHT22;27790;50.840;4.386;2023-06-10T05:47:53;29.00;65.80
39675;DHT22;27790;50.840;4.386;2023-06-10T05:50:18;29.00;65.90
39675;DHT22;27790;50.840;4.386;2023-06-10T05:52:44;28.80;66.20
39675;DHT22;27790;50.840;4.386;2023-06-10T05:55:10;28.30;67.20
39675;DHT22;27790;50.840;4.386;2023-06-10T05:57:35;28.10;67.60
39675;DHT22;27790;50.840;4.386;2023-06-10T06:00:01;27.70;67.90
39675;DHT22;27790;50.840;4.386;2023-06-10T06:02:27;27.60;68.50
39675;DHT22;27790;50.840;4.386;2023-06-10T06:04:52;27.80;68.10
39675;DHT22;27790;50.840;4.386;2023-06-10T06:07:18;28.20;67.10
39675;DHT22;27790;50.840;4.386;2023-06-10T06:09:46;28.60;66.80
39675;DHT22;27790;50.840;4.386;2023-06-10T06:12:12;29.00;66.20
39675;DHT22;27790;50.840;4.386;2023-06-10T06:14:38;29.30;65.90
39675;DHT22;27790;50.840;4.386;2023-06-10T06:17:07;29.50;65.30
39675;DHT22;27790;50.840;4.386;2023-06-10T06:19:33;29.90;65.00
39675;DHT22;27790;50.840;4.386;2023-06-10T06:21:59;30.10;64.50
39675;DHT22;27790;50.840;4.386;2023-06-10T06:24:25;30.30;64.40
39675;DHT22;27790;50.840;4.386;2023-06-10T06:26:50;30.20;65.00
39675;DHT22;27790;50.840;4.386;2023-06-10T06:29:16;30.20;64.70
39675;DHT22;27790;50.840;4.386;2023-06-10T06:31:41;30.40;64.50
39675;DHT22;27790;50.840;4.386;2023-06-10T06:34:07;30.50;64.20
39675;DHT22;27790;50.840;4.386;2023-06-10T06:36:32;30.60;63.90
39675;DHT22;27790;50.840;4.386;2023-06-10T06:38:58;31.10;63.40
39675;DHT22;27790;50.840;4.386;2023-06-10T06:41:27;31.40;63.40
39675;DHT22;27790;50.840;4.386;2023-06-10T06:43:54;31.00;63.30
39675;DHT22;27790;50.840;4.386;2023-06-10T06:46:20;31.10;63.20
39675;DHT22;27790;50.840;4.386;2023-06-10T06:48:46;31.40;63.00
39675;DHT22;27790;50.840;4.386;2023-06-10T06:51:12;31.40;62.90
39675;DHT22;27790;50.840;4.386;2023-06-10T06:53:38;31.50;62.70
39675;DHT22;27790;50.840;4.386;2023-06-10T06:56:10;31.50;64.10
39675;DHT22;27790;50.840;4.386;2023-06-10T06:58:35;31.60;62.90
39675;DHT22;27790;50.840;4.386;2023-06-10T07:01:01;31.60;62.60
39675;DHT22;27790;50.840;4.386;2023-06-10T07:03:26;31.80;62.00
39675;DHT22;27790;50.840;4.386;2023-06-10T07:05:52;31.90;63.70
39675;DHT22;27790;50.840;4.386;2023-06-10T07:08:17;31.70;62.10
39675;DHT22;27790;50.840;4.386;2023-06-10T07:10:43;31.60;62.60
39675;DHT22;27790;50.840;4.386;2023-06-10T07:13:09;31.60;62.60
39675;DHT22;27790;50.840;4.386;2023-06-10T07:15:35;31.50;62.00
39675;DHT22;27790;50.840;4.386;2023-06-10T07:18:00;31.80;62.10
39675;DHT22;27790;50.840;4.386;2023-06-10T07:20:26;32.00;61.70
39675;DHT22;27790;50.840;4.386;2023-06-10T07:22:51;32.00;61.60
39675;DHT22;27790;50.840;4.386;2023-06-10T07:25:17;32.20;62.00
39675;DHT22;27790;50.840;4.386;2023-06-10T07:27:42;32.50;62.00
39675;DHT22;27790;50.840;4.386;2023-06-10T07:30:08;32.90;61.00
39675;DHT22;27790;50.840;4.386;2023-06-10T07:32:34;32.90;61.30
39675;DHT22;27790;50.840;4.386;2023-06-10T07:35:00;33.10;60.70
39675;DHT22;27790;50.840;4.386;2023-06-10T07:37:25;33.30;60.20
39675;DHT22;27790;50.840;4.386;2023-06-10T07:39:51;33.20;59.30
39675;DHT22;27790;50.840;4.386;2023-06-10T07:42:17;32.40;60.50
39675;DHT22;27790;50.840;4.386;2023-06-10T07:44:42;31.80;60.50
39675;DHT22;27790;50.840;4.386;2023-06-10T07:47:08;31.50;61.90
39675;DHT22;27790;50.840;4.386;2023-06-10T07:49:33;31.80;61.80
39675;DHT22;27790;50.840;4.386;2023-06-10T07:51:59;31.90;61.30
39675;DHT22;27790;50.840;4.386;2023-06-10T07:54:24;31.90;62.10
39675;DHT22;27790;50.840;4.386;2023-06-10T07:56:50;32.20;60.80
39675;DHT22;27790;50.840;4.386;2023-06-10T07:59:18;32.40;59.50
39675;DHT22;27790;50.840;4.386;2023-06-10T08:01:44;32.30;60.30
39675;DHT22;27790;50.840;4.386;2023-06-10T08:04:09;32.30;60.20
39675;DHT22;27790;50.840;4.386;2023-06-10T08:06:35;32.60;59.80
39675;DHT22;27790;50.840;4.386;2023-06-10T08:09:02;32.80;59.60
39675;DHT22;27790;50.840;4.386;2023-06-10T08:11:28;32.80;59.40
39675;DHT22;27790;50.840;4.386;2023-06-10T08:13:55;32.70;60.10
39675;DHT22;27790;50.840;4.386;2023-06-10T08:16:20;32.90;60.40
39675;DHT22;27790;50.840;4.386;2023-06-10T08:18:46;32.70;60.00
39675;DHT22;27790;50.840;4.386;2023-06-10T08:21:12;32.10;59.20
39675;DHT22;27790;50.840;4.386;2023-06-10T08:23:37;32.20;60.80
39675;DHT22;27790;50.840;4.386;2023-06-10T08:26:03;32.50;59.90
39675;DHT22;27790;50.840;4.386;2023-06-10T08:28:28;32.70;59.90
39675;DHT22;27790;50.840;4.386;2023-06-10T08:30:54;32.90;59.40
39675;DHT22;27790;50.840;4.386;2023-06-10T08:33:20;33.10;59.40
39675;DHT22;27790;50.840;4.386;2023-06-10T08:35:45;33.50;59.60
39675;DHT22;27790;50.840;4.386;2023-06-10T08:38:11;33.90;58.80
39675;DHT22;27790;50.840;4.386;2023-06-10T08:40:37;34.10;57.70
39675;DHT22;27790;50.840;4.386;2023-06-10T08:43:07;34.10;57.80
39675;DHT22;27790;50.840;4.386;2023-06-10T08:45:35;34.40;57.40
39675;DHT22;27790;50.840;4.386;2023-06-10T08:48:05;34.70;57.70
39675;DHT22;27790;50.840;4.386;2023-06-10T08:50:37;35.40;57.10
39675;DHT22;27790;50.840;4.386;2023-06-10T08:53:07;35.90;56.40
39675;DHT22;27790;50.840;4.386;2023-06-10T08:55:38;36.00;56.10
39675;DHT22;27790;50.840;4.386;2023-06-10T08:58:04;35.80;55.30
39675;DHT22;27790;50.840;4.386;2023-06-10T09:00:31;35.60;55.40
39675;DHT22;27790;50.840;4.386;2023-06-10T09:02:58;35.40;55.90
39675;DHT22;27790;50.840;4.386;2023-06-10T09:05:24;35.60;55.40
39675;DHT22;27790;50.840;4.386;2023-06-10T09:07:52;35.90;54.90
39675;DHT22;27790;50.840;4.386;2023-06-10T09:10:18;35.70;55.80
39675;DHT22;27790;50.840;4.386;2023-06-10T09:12:44;35.80;54.90
39675;DHT22;27790;50.840;4.386;2023-06-10T09:15:10;35.60;54.60
39675;DHT22;27790;50.840;4.386;2023-06-10T09:17:37;35.80;54.70
39675;DHT22;27790;50.840;4.386;2023-06-10T09:20:06;36.10;55.50
39675;DHT22;27790;50.840;4.386;2023-06-10T09:22:33;36.40;54.90
39675;DHT22;27790;50.840;4.386;2023-06-10T09:25:10;36.90;54.40
39675;DHT22;27790;50.840;4.386;2023-06-10T09:27:47;36.90;54.00
39675;DHT22;27790;50.840;4.386;2023-06-10T09:32:52;35.90;53.70
39675;DHT22;27790;50.840;4.386;2023-06-10T09:35:18;34.80;54.70
39675;DHT22;27790;50.840;4.386;2023-06-10T09:37:44;34.80;55.70
39675;DHT22;27790;50.840;4.386;2023-06-10T09:40:11;34.80;56.10
39675;DHT22;27790;50.840;4.386;2023-06-10T09:42:38;34.60;55.60
39675;DHT22;27790;50.840;4.386;2023-06-10T09:45:06;34.70;54.90
39675;DHT22;27790;50.840;4.386;2023-06-10T09:47:32;34.70;56.30
39675;DHT22;27790;50.840;4.386;2023-06-10T09:49:58;34.80;56.10
39675;DHT22;27790;50.840;4.386;2023-06-10T09:52:25;34.50;55.80
39675;DHT22;27790;50.840;4.386;2023-06-10T09:54:52;34.30;56.50
39675;DHT22;27790;50.840;4.386;2023-06-10T09:57:19;33.60;56.00
39675;DHT22;27790;50.840;4.386;2023-06-10T09:59:45;33.00;56.40
39675;DHT22;27790;50.840;4.386;2023-06-10T10:02:16;32.50;57.40
39675;DHT22;27790;50.840;4.386;2023-06-10T10:04:44;32.30;57.50
39675;DHT22;27790;50.840;4.386;2023-06-10T10:07:11;31.70;57.70
39675;DHT22;27790;50.840;4.386;2023-06-10T10:09:37;31.20;59.10
39675;DHT22;27790;50.840;4.386;2023-06-10T10:12:12;30.90;59.10
39675;DHT22;27790;50.840;4.386;2023-06-10T10:14:38;30.80;58.40
39675;DHT22;27790;50.840;4.386;2023-06-10T10:17:10;30.50;59.60
39675;DHT22;27790;50.840;4.386;2023-06-10T10:19:48;30.50;59.10
39675;DHT22;27790;50.840;4.386;2023-06-10T10:22:26;30.30;59.20
39675;DHT22;27790;50.840;4.386;2023-06-10T10:25:02;30.20;60.20
39675;DHT22;27790;50.840;4.386;2023-06-10T10:27:33;30.30;58.30
39675;DHT22;27790;50.840;4.386;2023-06-10T10:30:01;30.30;61.10
39675;DHT22;27790;50.840;4.386;2023-06-10T10:32:37;30.50;59.20
39675;DHT22;27790;50.840;4.386;2023-06-10T10:35:16;30.60;58.20
39675;DHT22;27790;50.840;4.386;2023-06-10T10:37:43;30.70;57.90
39675;DHT22;27790;50.840;4.386;2023-06-10T10:40:09;30.80;58.80
39675;DHT22;27790;50.840;4.386;2023-06-10T10:42:36;30.60;57.80
39675;DHT22;27790;50.840;4.386;2023-06-10T10:45:02;30.50;56.30
39675;DHT22;27790;50.840;4.386;2023-06-10T10:47:28;30.50;57.70
39675;DHT22;27790;50.840;4.386;2023-06-10T10:49:56;30.60;56.80
39675;DHT22;27790;50.840;4.386;2023-06-10T10:52:24;30.60;55.50
39675;DHT22;27790;50.840;4.386;2023-06-10T10:54:53;30.50;55.10
39675;DHT22;27790;50.840;4.386;2023-06-10T10:57:23;30.40;55.10
39675;DHT22;27790;50.840;4.386;2023-06-10T11:02:36;30.30;55.70
39675;DHT22;27790;50.840;4.386;2023-06-10T11:05:04;30.20;56.00
39675;DHT22;27790;50.840;4.386;2023-06-10T11:07:31;30.30;54.60
39675;DHT22;27790;50.840;4.386;2023-06-10T11:12:25;30.70;55.90
39675;DHT22;27790;50.840;4.386;2023-06-10T11:14:55;30.70;58.00
39675;DHT22;27790;50.840;4.386;2023-06-10T11:17:24;30.80;57.80
39675;DHT22;27790;50.840;4.386;2023-06-10T11:19:50;30.90;54.10
39675;DHT22;27790;50.840;4.386;2023-06-10T11:22:18;30.90;54.70
39675;DHT22;27790;50.840;4.386;2023-06-10T11:24:49;30.90;55.40
39675;DHT22;27790;50.840;4.386;2023-06-10T11:27:22;31.00;55.40
39675;DHT22;27790;50.840;4.386;2023-06-10T11:32:29;31.20;55.40
39675;DHT22;27790;50.840;4.386;2023-06-10T11:34:57;31.10;53.60
39675;DHT22;27790;50.840;4.386;2023-06-10T11:37:23;31.10;53.40
39675;DHT22;27790;50.840;4.386;2023-06-10T11:39:53;31.00;53.30
39675;DHT22;27790;50.840;4.386;2023-06-10T11:42:19;30.70;52.60
39675;DHT22;27790;50.840;4.386;2023-06-10T11:44:53;30.50;55.40
39675;DHT22;27790;50.840;4.386;2023-06-10T11:47:19;30.60;53.90
39675;DHT22;27790;50.840;4.386;2023-06-10T11:49:46;30.50;55.80
39675;DHT22;27790;50.840;4.386;2023-06-10T11:52:26;30.50;55.30
39675;DHT22;27790;50.840;4.386;2023-06-10T11:54:54;30.60;54.30
39675;DHT22;27790;50.840;4.386;2023-06-10T11:57:20;30.60;55.10
39675;DHT22;27790;50.840;4.386;2023-06-10T11:59:46;30.70;53.00
39675;DHT22;27790;50.840;4.386;2023-06-10T12:02:15;30.70;53.50
39675;DHT22;27790;50.840;4.386;2023-06-10T12:04:41;30.80;53.90
39675;DHT22;27790;50.840;4.386;2023-06-10T12:07:07;30.80;54.60
39675;DHT22;27790;50.840;4.386;2023-06-10T12:09:32;31.00;54.00
39675;DHT22;27790;50.840;4.386;2023-06-10T12:12:05;31.00;53.90
39675;DHT22;27790;50.840;4.386;2023-06-10T12:20:04;31.00;54.20
39675;DHT22;27790;50.840;4.386;2023-06-10T12:22:38;30.90;53.90
39675;DHT22;27790;50.840;4.386;2023-06-10T12:25:05;30.80;54.00
39675;DHT22;27790;50.840;4.386;2023-06-10T12:27:33;30.60;54.10
39675;DHT22;27790;50.840;4.386;2023-06-10T12:30:00;30.70;54.10
39675;DHT22;27790;50.840;4.386;2023-06-10T12:32:38;30.70;53.70
39675;DHT22;27790;50.840;4.386;2023-06-10T12:35:06;30.80;54.00
39675;DHT22;27790;50.840;4.386;2023-06-10T12:37:32;30.90;54.00
39675;DHT22;27790;50.840;4.386;2023-06-10T12:40:04;31.00;54.40
39675;DHT22;27790;50.840;4.386;2023-06-10T12:42:37;31.00;54.30
39675;DHT22;27790;50.840;4.386;2023-06-10T12:45:04;31.00;53.90
39675;DHT22;27790;50.840;4.386;2023-06-10T12:47:35;31.00;54.10
39675;DHT22;27790;50.840;4.386;2023-06-10T12:50:02;31.00;54.80
39675;DHT22;27790;50.840;4.386;2023-06-10T12:52:28;31.00;53.50
39675;DHT22;27790;50.840;4.386;2023-06-10T12:54:54;31.10;53.70
39675;DHT22;27790;50.840;4.386;2023-06-10T12:57:21;31.10;56.00
39675;DHT22;27790;50.840;4.386;2023-06-10T12:59:46;31.10;55.00
39675;DHT22;27790;50.840;4.386;2023-06-10T13:02:20;31.30;54.00
39675;DHT22;27790;50.840;4.386;2023-06-10T13:04:49;31.30;54.40
39675;DHT22;27790;50.840;4.386;2023-06-10T13:07:15;31.30;54.10
39675;DHT22;27790;50.840;4.386;2023-06-10T13:09:42;31.30;55.00
39675;DHT22;27790;50.840;4.386;2023-06-10T13:12:08;31.30;54.00
39675;DHT22;27790;50.840;4.386;2023-06-10T13:14:33;31.40;56.20
39675;DHT22;27790;50.840;4.386;2023-06-10T13:16:59;31.40;55.20
39675;DHT22;27790;50.840;4.386;2023-06-10T13:19:25;31.30;54.40
39675;DHT22;27790;50.840;4.386;2023-06-10T13:21:51;31.30;54.50
39675;DHT22;27790;50.840;4.386;2023-06-10T13:24:17;31.50;57.20
39675;DHT22;27790;50.840;4.386;2023-06-10T13:26:43;31.50;55.20
39675;DHT22;27790;50.840;4.386;2023-06-10T13:29:09;31.60;54.90
39675;DHT22;27790;50.840;4.386;2023-06-10T13:31:39;31.60;54.20
39675;DHT22;27790;50.840;4.386;2023-06-10T13:34:05;31.60;53.40
39675;DHT22;27790;50.840;4.386;2023-06-10T13:36:31;31.70;53.90
39675;DHT22;27790;50.840;4.386;2023-06-10T13:38:57;31.80;53.50
39675;DHT22;27790;50.840;4.386;2023-06-10T13:41:22;31.80;53.70
39675;DHT22;27790;50.840;4.386;2023-06-10T13:43:48;31.80;53.80
39675;DHT22;27790;50.840;4.386;2023-06-10T13:46:14;31.80;53.80
39675;DHT22;27790;50.840;4.386;2023-06-10T13:48:40;31.70;54.20
39675;DHT22;27790;50.840;4.386;2023-06-10T13:51:05;31.70;53.80
39675;DHT22;27790;50.840;4.386;2023-06-10T13:53:32;31.60;54.10
39675;DHT22;27790;50.840;4.386;2023-06-10T13:55:57;31.30;53.50
39675;DHT22;27790;50.840;4.386;2023-06-10T13:58:23;31.10;53.60
39675;DHT22;27790;50.840;4.386;2023-06-10T14:00:49;31.10;53.80
39675;DHT22;27790;50.840;4.386;2023-06-10T14:03:14;31.10;52.50
39675;DHT22;27790;50.840;4.386;2023-06-10T14:05:40;31.10;52.80
39675;DHT22;27790;50.840;4.386;2023-06-10T14:08:06;31.10;54.70
39675;DHT22;27790;50.840;4.386;2023-06-10T14:10:31;31.20;53.60
39675;DHT22;27790;50.840;4.386;2023-06-10T14:12:57;31.20;53.40
39675;DHT22;27790;50.840;4.386;2023-06-10T14:15:22;31.10;53.00
39675;DHT22;27790;50.840;4.386;2023-06-10T14:17:48;31.00;53.00
39675;DHT22;27790;50.840;4.386;2023-06-10T14:20:13;30.90;54.00
39675;DHT22;27790;50.840;4.386;2023-06-10T14:22:39;31.00;52.80
39675;DHT22;27790;50.840;4.386;2023-06-10T14:25:06;31.00;53.40
39675;DHT22;27790;50.840;4.386;2023-06-10T14:27:31;31.10;53.40
39675;DHT22;27790;50.840;4.386;2023-06-10T14:29:57;31.10;53.90
39675;DHT22;27790;50.840;4.386;2023-06-10T14:32:22;31.10;53.90
39675;DHT22;27790;50.840;4.386;2023-06-10T14:34:48;31.20;53.30
39675;DHT22;27790;50.840;4.386;2023-06-10T14:37:14;31.20;53.40
39675;DHT22;27790;50.840;4.386;2023-06-10T14:39:39;31.20;53.00
39675;DHT22;27790;50.840;4.386;2023-06-10T14:42:05;31.20;53.50
39675;DHT22;27790;50.840;4.386;2023-06-10T14:44:31;31.20;53.30
39675;DHT22;27790;50.840;4.386;2023-06-10T14:46:57;31.20;52.70
39675;DHT22;27790;50.840;4.386;2023-06-10T14:49:22;31.20;54.40
39675;DHT22;27790;50.840;4.386;2023-06-10T14:51:48;31.10;52.40
39675;DHT22;27790;50.840;4.386;2023-06-10T14:54:15;30.90;52.70
39675;DHT22;27790;50.840;4.386;2023-06-10T14:56:41;30.80;53.10
39675;DHT22;27790;50.840;4.386;2023-06-10T14:59:06;30.80;53.10
39675;DHT22;27790;50.840;4.386;2023-06-10T15:01:32;30.80;53.20
39675;DHT22;27790;50.840;4.386;2023-06-10T15:03:58;30.80;53.60
39675;DHT22;27790;50.840;4.386;2023-06-10T15:06:23;30.80;52.90
39675;DHT22;27790;50.840;4.386;2023-06-10T15:08:49;30.80;52.90
39675;DHT22;27790;50.840;4.386;2023-06-10T15:11:15;30.80;54.60
39675;DHT22;27790;50.840;4.386;2023-06-10T15:13:41;30.80;53.30
39675;DHT22;27790;50.840;4.386;2023-06-10T15:16:06;30.80;53.00
39675;DHT22;27790;50.840;4.386;2023-06-10T15:18:32;30.70;53.40
39675;DHT22;27790;50.840;4.386;2023-06-10T15:20:58;30.70;52.70
39675;DHT22;27790;50.840;4.386;2023-06-10T15:23:24;30.80;53.30
39675;DHT22;27790;50.840;4.386;2023-06-10T15:25:50;30.80;53.50
39675;DHT22;27790;50.840;4.386;2023-06-10T15:28:15;31.00;52.80
39675;DHT22;27790;50.840;4.386;2023-06-10T15:30:41;31.00;52.60
39675;DHT22;27790;50.840;4.386;2023-06-10T15:33:07;31.00;52.80
39675;DHT22;27790;50.840;4.386;2023-06-10T15:35:33;31.00;54.00
39675;DHT22;27790;50.840;4.386;2023-06-10T15:37:58;31.00;53.00
39675;DHT22;27790;50.840;4.386;2023-06-10T15:40:24;31.00;53.30
39675;DHT22;27790;50.840;4.386;2023-06-10T15:42:50;31.00;52.60
39675;DHT22;27790;50.840;4.386;2023-06-10T15:45:15;30.90;53.70
39675;DHT22;27790;50.840;4.386;2023-06-10T15:47:41;31.00;53.20
39675;DHT22;27790;50.840;4.386;2023-06-10T15:50:09;31.00;53.50